• Join FlightAware (Why Join?)
  • Login
  • US Flag 
11:24PM EDT


 

Airport Tracker/Info


-or-


 

Live Flight TrackerFlight Track Log ✈ SWA1040 ✈ 22-Jun-2013 ✈ KPVD - KTPA

Flight Track Log - Related Links

Times and Time Zones

All times are in EDT time to prevent confusion due to time zone crossing. See the SWA1040 flight status page for this flight to view local times or setup timezone preferences in your user account.

Time Position Orientation Groundspeed Altitude Reporting Facility
EDT Latitude Longitude Course Direction KTS MPH feet Rate Location/Type
07:10AM 41.7103 -71.4389 237° Southwest 134 154 600  Level Boston Center
07:11AM 41.6981 -71.4642 237° Southwest 169 194 1,800 2,520 Climbing Boston Center
07:12AM 41.6964 -71.5308 268° West 222 255 4,400 2,880 Climbing Boston Center
07:13AM 41.7408 -71.5917 314° West 246 283 7,600 3,420 Climbing Boston Center
07:14AM 41.8100 -71.6797 317° Northwest 269 310 11,300 3,360 Climbing Boston Center
07:15AM 41.8233 -71.7856 280° West 296 341 14,400 3,120 Climbing Boston Center
07:16AM 41.8386 -71.8967 280° West 331 381 17,600 2,820 Climbing Boston Center
07:17AM 41.8453 -72.0417 274° West 347 399 20,100 2,580 Climbing Boston Center
07:18AM 41.7978 -72.1672 243° Southwest 352 405 22,800 2,460 Climbing Boston Center
07:19AM 41.7500 -72.2981 244° Southwest 369 425 25,100 2,280 Climbing Boston Center
07:20AM 41.7044 -72.4289 245° Southwest 381 438 27,400 2,340 Climbing Boston Center
07:21AM 41.6564 -72.5594 244° Southwest 392 451 29,800 2,040 Climbing Boston Center
07:22AM 41.6081 -72.6956 245° Southwest 397 457 31,500 1,500 Climbing Boston Center
07:23AM 41.5556 -72.8311 243° Southwest 402 463 32,900 1,200 Climbing Boston Center
07:24AM 41.5383 -72.9808 261° West 409 471 34,000 1,200 Climbing Boston Center
07:25AM 41.5228 -73.1472 263° West 415 478 35,400 1,380 Climbing Boston Center
07:27AM 41.3931 -73.3875 234° Southwest 426 490 37,900 1,200 Climbing New York Center
07:28AM 41.3192 -73.5197 233° Southwest 446 513 38,900 900 Climbing New York Center
07:29AM 41.2431 -73.6492 232° Southwest 451 519 39,800 540 Climbing New York Center
07:30AM 41.1650 -73.7808 232° Southwest 456 525 40,000 60 Climbing New York Center
07:31AM 41.0886 -73.9094 232° Southwest 456 525 40,000  Level New York Center
07:32AM 41.0142 -74.0408 233° Southwest 456 525 40,000  Level New York Center
07:33AM 40.9358 -74.1661 230° Southwest 456 525 40,000  Level New York Center
07:34AM 40.8617 -74.2775 229° Southwest 456 525 40,000  Level New York Center
07:35AM 40.7869 -74.4053 232° Southwest 456 525 40,000  Level New York Center
07:36AM 40.7122 -74.5300 232° Southwest 456 525 40,000  Level New York Center
07:37AM 40.6353 -74.6569 231° Southwest 456 525 40,000  Level New York Center
07:38AM 40.5561 -74.7781 229° Southwest 451 519 40,000  Level New York Center
07:39AM 40.4769 -74.8936 228° Southwest 446 513 40,000  Level New York Center
07:40AM 40.3936 -75.0114 227° Southwest 446 513 40,000  Level New York Center
07:41AM 40.3125 -75.1261 227° Southwest 440 506 40,000  Level New York Center
07:42AM 40.2311 -75.2406 227° Southwest 440 506 40,000  Level New York Center
07:43AM 40.1492 -75.3603 228° Southwest 440 506 40,000  Level New York Center
07:44AM 40.0678 -75.4742 227° Southwest 435 501 40,000  Level New York Center
07:45AM 39.9817 -75.5903 226° Southwest 435 501 40,000  Level New York Center
07:46AM 39.8997 -75.7064 227° Southwest 440 506 40,000  Level New York Center
07:47AM 39.8236 -75.8308 231° Southwest 446 513 40,000  Level New York Center
07:49AM 39.6186 -76.1519 230° Southwest 445 512 40,000  Level Washington Center
07:50AM 39.5408 -76.2778 231° Southwest 445 512 40,000  Level Washington Center
07:51AM 39.4567 -76.3978 228° Southwest 450 518 40,000  Level Washington Center
07:52AM 39.3978 -76.4994 233° Southwest 450 518 40,000  Level Washington Center
07:53AM 39.2964 -76.6483 229° Southwest 455 524 40,000  Level Washington Center
07:54AM 39.2181 -76.7703 230° Southwest 455 524 40,000  Level Washington Center
07:55AM 39.1378 -76.8947 230° Southwest 455 524 40,000  Level Washington Center
07:56AM 39.0569 -77.0189 230° Southwest 455 524 40,000  Level Washington Center
07:57AM 38.9619 -77.1267 221° Southwest 455 524 40,000  Level Washington Center
07:58AM 38.8647 -77.2339 221° Southwest 455 524 40,000  Level Washington Center
07:59AM 38.7672 -77.3383 220° Southwest 460 529 40,000  Level Washington Center
08:00AM 38.6697 -77.4450 221° Southwest 460 529 40,000  Level Washington Center
08:01AM 38.5744 -77.5489 220° Southwest 459 528 40,000  Level Washington Center
08:02AM 38.4808 -77.6550 222° Southwest 459 528 40,000  Level Washington Center
08:03AM 38.3853 -77.7583 220° Southwest 459 528 40,000  Level Washington Center
08:04AM 38.2894 -77.8589 219° Southwest 459 528 40,000  Level Washington Center
08:05AM 38.1936 -77.9617 220° Southwest 459 528 40,000  Level Washington Center
08:06AM 38.1189 -78.0464 222° Southwest 459 528 40,000  Level Washington Center
08:07AM 38.0061 -78.1639 219° Southwest 454 522 40,000  Level Washington Center
08:08AM 37.9081 -78.2578 217° Southwest 449 517 40,000  Level Washington Center
08:09AM 37.8078 -78.3542 217° Southwest 454 522 40,000  Level Washington Center
08:10AM 37.7033 -78.4503 216° Southwest 459 528 40,000  Level Washington Center
08:11AM 37.6158 -78.5333 217° Southwest 459 528 40,000  Level Washington Center
08:12AM 37.5133 -78.6264 216° Southwest 459 528 40,000  Level Washington Center
08:13AM 37.4150 -78.7192 217° Southwest 459 528 40,000  Level Washington Center
08:14AM 37.3144 -78.8142 217° Southwest 459 528 40,000  Level Washington Center
08:15AM 37.2139 -78.9067 216° Southwest 459 528 40,000  Level Washington Center
08:16AM 37.1025 -79.0086 216° Southwest 454 522 40,000  Level Washington Center
08:17AM 37.0039 -79.1003 217° Southwest 454 522 40,000  Level Washington Center
08:18AM 36.9075 -79.1894 216° Southwest 449 517 40,000  Level Washington Center
08:19AM 36.8067 -79.2808 216° Southwest 449 517 40,000  Level Washington Center
08:20AM 36.7097 -79.3719 217° Southwest 449 517 40,000  Level Washington Center
08:21AM 36.6197 -79.4531 216° Southwest 449 517 40,000  Level Washington Center
08:22AM 36.5228 -79.5439 217° Southwest 449 517 40,000  Level Washington Center
08:23AM 36.4092 -79.6431 215° Southwest 427 491 40,000  Level Atlanta Center
08:24AM 36.3103 -79.7333 216° Southwest 439 505 40,000  Level Atlanta Center
08:25AM 36.2131 -79.8208 216° Southwest 439 505 40,000  Level Atlanta Center
08:26AM 36.1139 -79.9083 215° Southwest 439 505 40,000  Level Atlanta Center
08:27AM 36.0267 -79.9822 214° Southwest 439 505 40,000  Level Atlanta Center
08:28AM 35.9139 -80.0417 203° Southwest 426 490 40,000  Level Atlanta Center
08:29AM 35.8053 -80.0981 203° Southwest 431 496 40,000  Level Atlanta Center
08:30AM 35.6942 -80.1494 201° Southwest 431 496 40,000  Level Atlanta Center
08:31AM 35.5750 -80.2114 203° Southwest 431 496 40,000  Level Atlanta Center
08:32AM 35.4642 -80.2675 202° Southwest 426 490 40,000  Level Atlanta Center
08:33AM 35.3572 -80.3208 202° Southwest 426 490 40,000  Level Atlanta Center
08:35AM 35.1719 -80.4117 202° Southwest 421 484 40,000  Level Jacksonville Center
08:36AM 35.0647 -80.4681 203° Southwest 426 490 40,000  Level Jacksonville Center
08:37AM 34.9656 -80.5139 201° Southwest 426 490 40,000  Level Jacksonville Center
08:38AM 34.8539 -80.5703 203° Southwest 426 490 40,000  Level Jacksonville Center
08:39AM 34.7383 -80.6314 203° Southwest 421 484 40,000  Level Jacksonville Center
08:40AM 34.6286 -80.6847 202° Southwest 421 484 40,000  Level Jacksonville Center
08:41AM 34.5253 -80.7328 201° Southwest 439 505 40,000  Level Jacksonville Center
08:42AM 34.4033 -80.7989 204° Southwest 427 491 40,000  Level Jacksonville Center
08:43AM 34.2936 -80.8517 202° Southwest 427 491 40,000  Level Jacksonville Center
08:44AM 34.1942 -80.8942 199° South 421 484 40,000  Level Jacksonville Center
08:45AM 34.0822 -80.9519 203° Southwest 421 484 40,000  Level Jacksonville Center
08:46AM 33.9725 -81.0044 202° Southwest 426 490 40,000  Level Jacksonville Center
08:47AM 33.8606 -81.0519 199° South 431 496 40,000  Level Jacksonville Center
08:48AM 33.7736 -81.0961 203° Southwest 431 496 40,000  Level Jacksonville Center
08:49AM 33.6408 -81.1636 203° Southwest 436 502 40,000  Level Jacksonville Center
08:50AM 33.5331 -81.2181 203° Southwest 431 496 40,000  Level Jacksonville Center
08:51AM 33.4336 -81.2647 201° Southwest 431 496 40,000  Level Jacksonville Center
08:52AM 33.3236 -81.3142 201° Southwest 431 496 40,000  Level Jacksonville Center
08:53AM 33.2136 -81.3631 200° South 431 496 40,000  Level Jacksonville Center
08:54AM 33.1036 -81.4147 201° Southwest 431 496 40,000  Level Jacksonville Center
08:55AM 32.9936 -81.4636 200° South 431 496 40,000  Level Jacksonville Center
08:56AM 32.8833 -81.5122 200° South 431 496 40,000  Level Jacksonville Center
08:57AM 32.7733 -81.5608 200° South 431 496 40,000  Level Jacksonville Center
08:58AM 32.6653 -81.6119 202° Southwest 426 490 40,000  Level Jacksonville Center
08:59AM 32.5469 -81.6653 201° Southwest 426 490 40,000  Level Jacksonville Center
09:00AM 32.4492 -81.7083 200° South 426 490 40,000  Level Jacksonville Center
09:01AM 32.3264 -81.7642 201° Southwest 426 490 40,000  Level Jacksonville Center
09:02AM 32.2142 -81.8122 200° South 431 496 40,000  Level Jacksonville Center
09:03AM 32.1100 -81.8356 191° South 423 487 40,000  Level Jacksonville Center
09:04AM 31.9808 -81.8639 191° South 429 494 40,000  Level Jacksonville Center
09:05AM 31.8764 -81.8822 188° South 430 495 40,000  Level Jacksonville Center
09:06AM 31.7494 -81.9106 191° South 430 495 40,000  Level Jacksonville Center
09:07AM 31.6306 -81.9361 190° South 430 495 40,000  Level Jacksonville Center
09:08AM 31.5264 -81.9567 190° South 430 495 40,000  Level Jacksonville Center
09:09AM 31.3950 -81.9847 190° South 430 495 40,000  Level Jacksonville Center
09:10AM 31.2783 -82.0125 192° South 430 495 40,000  Level Jacksonville Center
09:11AM 31.1594 -82.0356 189° South 430 495 40,000  Level Jacksonville Center
09:12AM 31.0383 -82.0633 191° South 430 495 40,000 -420 Level Jacksonville Center
09:13AM 30.9194 -82.0861 189° South 435 501 39,200 -900 Descending Jacksonville Center
09:14AM 30.8008 -82.1114 190° South 435 501 38,200 -600 Descending Jacksonville Center
09:15AM 30.6861 -82.1364 191° South 435 501 38,000 -120 Descending Jacksonville Center
09:16AM 30.5650 -82.1617 190° South 430 495 38,000  Level Jacksonville Center
09:17AM 30.4628 -82.1767 187° South 430 495 38,000  Level Jacksonville Center
09:18AM 30.3461 -82.2017 190° South 430 495 38,000 -540 Level Jacksonville Center
09:19AM 30.2272 -82.2242 189° South 430 495 37,000 -1,740 Descending Jacksonville Center
09:20AM 30.1061 -82.2514 191° South 430 495 34,600 -2,400 Descending Jacksonville Center
09:21AM 29.9872 -82.2786 191° South 430 495 32,200 -1,320 Descending Jacksonville Center
09:22AM 29.8686 -82.3033 190° South 435 501 32,000 -1,020 Descending Jacksonville Center
09:23AM 29.7494 -82.3233 188° South 441 507 30,200 -2,100 Descending Jacksonville Center
09:24AM 29.6306 -82.3503 191° South 441 507 27,800 -1,860 Descending Jacksonville Center
09:25AM 29.5158 -82.3508 180° South 435 501 26,500 -1,200 Descending Jacksonville Center
09:26AM 29.4011 -82.3347 173° South 420 483 25,500 -1,560 Descending Jacksonville Center
09:27AM 29.2883 -82.3236 175° South 420 483 23,400 -2,100 Descending Jacksonville Center
09:28AM 29.1839 -82.3097 173° South 404 465 21,300 -2,160 Descending Jacksonville Center
09:29AM 29.0794 -82.2986 175° South 393 452 19,100 -2,100 Descending Jacksonville Center
09:30AM 28.9792 -82.2897 176° South 376 433 17,200 -2,040 Descending Jacksonville Center
09:31AM 28.8789 -82.2761 173° South 370 426 15,100 -1,680 Descending Jacksonville Center
09:32AM 28.7167 -82.2500 172° South 330 380 12,800 -1,380 Descending Tampa TRACON
09:33AM 28.6333 -82.2500 180° South 300 345 11,600 -1,380 Descending Tampa TRACON
09:34AM 28.5500 -82.2500 180° South 294 338 10,100 -1,560 Descending Tampa TRACON
09:35AM 28.4667 -82.2500 180° South 287 330 8,500 -1,500 Descending Tampa TRACON
09:36AM 28.4000 -82.2500 180° South 282 325 7,100 -780 Descending Tampa TRACON
09:37AM 28.3333 -82.2833 204° Southwest 273 314 7,000 -720 Descending Tampa TRACON
09:38AM 28.2833 -82.3500 230° Southwest 272 313 5,700 -1,500 Descending Tampa TRACON
09:39AM 28.2333 -82.4167 230° Southwest 270 311 4,100 -1,320 Descending Tampa TRACON
09:40AM 28.1833 -82.4667 221° Southwest 247 284 3,100 -840 Descending Tampa TRACON
09:41AM 28.1167 -82.5000 204° Southwest 212 244 2,500 -660 Descending Tampa TRACON
09:42AM 28.0833 -82.5167 204° Southwest 167 192 1,800 -720 Descending Tampa TRACON